Time;durP1;ratioP1;P1;durP2;ratioP2;P2;SDS_P1;SDS_P2;PMS_P1;PMS_P2;Temp;Humidity;BMP_temperature;BMP_pressure;BME280_temperature;BME280_humidity;BME280_pressure;Samples;Min_cycle;Max_cycle;Signal;HPM_P1;HPM_P2
2023/10/07 00:00:47;;;;;;;11.57;3.40;;;;;;;16.38;66.21;100416.88;6184197;23;20012;-96
2023/10/07 00:03:18;;;;;;;12.93;4.55;;;;;;;16.18;66.84;100432.47;6210627;23;20023;-96
2023/10/07 00:05:46;;;;;;;8.73;3.70;;;;;;;16.55;66.24;100434.91;6183733;23;20016;-96
2023/10/07 00:08:20;;;;;;;8.43;3.83;;;;;;;16.39;66.49;100434.22;6211971;23;20456;-95
2023/10/07 00:10:49;;;;;;;9.88;4.45;;;;;;;16.35;66.64;100425.72;6212688;23;20008;-96
2023/10/07 00:13:20;;;;;;;12.40;4.80;;;;;;;16.44;66.65;100436.91;6213579;23;20005;-96
2023/10/07 00:15:48;;;;;;;8.57;3.63;;;;;;;16.50;66.54;100435.78;6185908;23;20039;-96
2023/10/07 00:18:14;;;;;;;11.35;4.63;;;;;;;16.31;67.12;100432.91;6210820;23;20013;-96
2023/10/07 00:20:45;;;;;;;9.27;4.10;;;;;;;16.43;67.04;100441.59;6212577;23;20043;-96
2023/10/07 00:23:12;;;;;;;11.88;4.43;;;;;;;16.46;67.23;100448.47;6210519;23;20008;-96
2023/10/07 00:25:38;;;;;;;12.63;4.53;;;;;;;16.34;67.77;100454.34;6210198;23;20064;-96
2023/10/07 00:28:17;;;;;;;31.45;23.17;;;;;;;16.22;67.57;100461.03;6210202;23;20434;-96
2023/10/07 00:30:43;;;;;;;8.90;4.22;;;;;;;16.37;67.95;100464.78;6210919;23;20123;-96
2023/10/07 00:33:09;;;;;;;11.43;4.75;;;;;;;16.25;67.85;100459.63;6183753;23;20442;-96
2023/10/07 00:35:36;;;;;;;12.07;5.40;;;;;;;16.13;68.57;100454.47;6184811;23;20043;-96
2023/10/07 00:38:02;;;;;;;8.55;3.92;;;;;;;16.31;68.19;100454.94;6210205;23;20338;-96
2023/10/07 00:42:56;;;;;;;323.15;307.45;;;;;;;16.28;68.78;100449.97;6210800;23;20247;-96
2023/10/07 00:45:24;;;;;;;303.25;288.77;;;;;;;16.24;68.30;100443.41;6210144;23;20438;-96
2023/10/07 00:47:52;;;;;;;250.52;238.98;;;;;;;16.39;68.29;100440.56;6208822;23;20032;-96
2023/10/07 00:50:17;;;;;;;276.48;262.67;;;;;;;15.97;69.53;100437.22;6209350;23;20004;-96
2023/10/07 00:55:27;;;;;;;389.95;370.10;;;;;;;16.18;68.60;100426.97;6220336;23;20035;-96
2023/10/07 00:58:03;;;;;;;433.70;411.20;;;;;;;16.18;69.04;100424.19;6209838;23;20017;-96
2023/10/07 01:03:12;;;;;;;520.63;491.00;;;;;;;15.98;70.16;100422.38;6214143;23;20036;-95
2023/10/07 01:05:44;;;;;;;756.53;706.42;;;;;;;16.04;70.05;100428.69;6210397;23;20117;-96
2023/10/07 01:08:09;;;;;;;1077.10;987.40;;;;;;;15.83;70.38;100429.63;6209998;23;20020;-96
2023/10/07 01:10:38;;;;;;;1161.10;999.90;;;;;;;15.82;70.96;100427.16;6209100;23;20012;-96
2023/10/07 01:13:23;;;;;;;1178.55;999.90;;;;;;;16.03;70.25;100400.38;6209763;23;20021;-95
2023/10/07 01:15:49;;;;;;;1130.43;999.90;;;;;;;15.92;70.70;100404.28;6183291;23;20080;-96
2023/10/07 01:18:19;;;;;;;1203.40;999.90;;;;;;;15.93;71.01;100389.41;6209673;23;20011;-96
2023/10/07 01:23:40;;;;;;;1411.68;999.90;;;;;;;15.89;70.96;100389.16;6219126;23;20268;-96
2023/10/07 01:26:14;;;;;;;1596.25;999.90;;;;;;;15.97;70.65;100388.56;6208591;23;20062;-95
2023/10/07 01:28:43;;;;;;;1913.72;999.90;;;;;;;15.95;70.78;100385.28;6183160;23;20009;-96
2023/10/07 01:31:18;;;;;;;1993.85;999.90;;;;;;;15.76;72.26;100379.66;6209781;23;19996;-95
2023/10/07 01:33:47;;;;;;;1999.90;999.90;;;;;;;15.82;71.77;100402.44;6209292;23;20004;-96
2023/10/07 01:36:19;;;;;;;1999.90;999.90;;;;;;;15.89;71.68;100389.16;6209283;23;20038;-96
2023/10/07 01:38:45;;;;;;;1999.90;999.90;;;;;;;15.83;71.54;100382.06;6209642;23;20009;-96
2023/10/07 01:41:18;;;;;;;1999.90;999.90;;;;;;;16.13;70.84;100393.16;6208921;23;20430;-96
2023/10/07 01:43:56;;;;;;;1999.90;999.90;;;;;;;15.70;72.28;100422.81;6182782;23;20103;-96
2023/10/07 01:46:27;;;;;;;1999.90;999.90;;;;;;;15.66;72.61;100427.25;6209720;23;20032;-96
2023/10/07 01:48:57;;;;;;;1999.90;999.90;;;;;;;15.64;72.80;100433.03;6209645;23;20039;-96
2023/10/07 01:51:23;;;;;;;1999.90;999.90;;;;;;;15.84;72.34;100436.78;6209006;23;20540;-96
2023/10/07 01:53:49;;;;;;;1999.90;999.90;;;;;;;15.90;72.22;100436.75;6209369;23;20060;-96
2023/10/07 01:56:15;;;;;;;1999.90;999.90;;;;;;;16.01;72.06;100423.75;6209625;23;20005;-96
2023/10/07 01:58:40;;;;;;;1999.90;999.90;;;;;;;16.02;71.80;100414.41;6209547;23;20032;-96
2023/10/07 02:01:06;;;;;;;1999.90;999.90;;;;;;;15.87;72.84;100411.47;6209312;23;20007;-96
2023/10/07 02:03:32;;;;;;;1999.90;999.90;;;;;;;15.79;72.67;100400.22;6209955;23;20495;-96
2023/10/07 02:05:58;;;;;;;1999.90;999.90;;;;;;;15.64;73.67;100391.00;6210461;23;20533;-96
2023/10/07 02:08:25;;;;;;;1999.90;999.90;;;;;;;16.01;72.65;100391.56;6183726;23;20005;-96
2023/10/07 02:11:05;;;;;;;1999.90;999.90;;;;;;;15.97;72.18;100396.81;6182300;23;20063;-92
2023/10/07 02:13:31;;;;;;;1999.90;999.90;;;;;;;16.06;72.25;100393.50;6208080;23;20031;-92
2023/10/07 02:15:56;;;;;;;1999.90;999.90;;;;;;;16.16;72.11;100392.59;6181541;23;20404;-92
2023/10/07 02:18:28;;;;;;;1999.90;999.90;;;;;;;16.32;71.96;100385.03;6207987;23;20015;-92
2023/10/07 02:21:06;;;;;;;1999.90;999.90;;;;;;;16.02;72.67;100382.25;6208559;23;20001;-92
2023/10/07 02:23:43;;;;;;;1999.90;999.90;;;;;;;15.85;73.34;100404.59;6208231;23;20501;-92
2023/10/07 02:26:18;;;;;;;1999.90;999.90;;;;;;;15.80;73.46;100401.88;6208630;23;20013;-92
2023/10/07 02:29:00;;;;;;;1999.90;999.90;;;;;;;15.95;73.79;100407.28;6208382;23;20079;-92
2023/10/07 02:31:27;;;;;;;1999.90;999.90;;;;;;;15.92;73.88;100398.78;6207081;23;20086;-92
2023/10/07 02:33:52;;;;;;;1999.90;999.90;;;;;;;16.17;73.41;100406.03;6207085;23;20067;-92
2023/10/07 02:36:29;;;;;;;1999.90;999.90;;;;;;;15.92;73.87;100418.03;6207658;23;20012;-92
2023/10/07 02:38:56;;;;;;;1999.90;999.90;;;;;;;16.06;73.69;100426.50;6180681;23;20009;-92
2023/10/07 02:41:24;;;;;;;1999.90;999.90;;;;;;;16.06;73.64;100410.81;6207466;23;20005;-92
2023/10/07 02:43:49;;;;;;;1999.90;999.90;;;;;;;16.10;73.84;100422.88;6207797;23;20043;-92
2023/10/07 02:46:27;;;;;;;1999.90;999.90;;;;;;;15.92;74.23;100421.59;6207283;23;20290;-92
2023/10/07 02:49:01;;;;;;;1999.90;999.90;;;;;;;15.93;74.81;100417.72;6207766;23;20096;-92
2023/10/07 02:51:27;;;;;;;1999.90;999.90;;;;;;;15.92;75.03;100409.78;6180219;23;20328;-92
2023/10/07 02:53:59;;;;;;;1999.90;999.90;;;;;;;16.02;74.70;100420.75;6207198;23;20087;-92
2023/10/07 02:56:24;;;;;;;1999.90;999.90;;;;;;;15.91;75.55;100424.63;6208417;23;20008;-93
2023/10/07 02:59:00;;;;;;;1999.90;999.90;;;;;;;15.81;75.36;100422.75;6208327;23;20039;-92
2023/10/07 03:01:26;;;;;;;1999.90;999.90;;;;;;;15.91;75.47;100425.44;6207539;23;20083;-92
2023/10/07 03:03:52;;;;;;;1999.90;999.90;;;;;;;16.15;74.36;100422.00;6206746;23;20098;-92
2023/10/07 03:06:18;;;;;;;1999.90;999.90;;;;;;;16.22;74.36;100429.94;6206924;23;20300;-93
2023/10/07 03:11:11;;;;;;;1999.90;999.90;;;;;;;16.12;74.82;100424.50;6207697;23;20448;-93
2023/10/07 03:13:45;;;;;;;1999.90;999.90;;;;;;;16.31;74.35;100422.72;6207281;23;20033;-93
2023/10/07 03:24:41;;;;;;;1999.90;999.90;;;;;;;16.19;74.85;100414.03;6196877;23;20545;-96
2023/10/07 03:27:10;;;;;;;1999.90;999.90;;;;;;;16.16;75.15;100414.59;6208557;23;20027;-96
2023/10/07 03:29:37;;;;;;;1999.90;999.90;;;;;;;16.08;75.10;100413.28;6208931;23;20065;-96
2023/10/07 03:32:12;;;;;;;1999.90;999.90;;;;;;;15.94;76.00;100419.41;6208067;23;20481;-96
2023/10/07 03:34:40;;;;;;;1999.90;999.90;;;;;;;16.02;76.09;100419.91;6181063;23;20063;-96
2023/10/07 03:39:55;;;;;;;1999.90;999.90;;;;;;;16.17;75.59;100416.25;6208432;23;20015;-96
2023/10/07 03:42:19;;;;;;;1999.90;999.90;;;;;;;16.19;75.65;100414.03;6207284;23;20709;-96
2023/10/07 03:44:46;;;;;;;1999.90;999.90;;;;;;;16.27;75.36;100409.84;6209288;23;20008;-96
2023/10/07 03:47:13;;;;;;;1999.90;999.90;;;;;;;16.26;75.16;100414.50;6209836;23;20286;-96
2023/10/07 03:49:41;;;;;;;1999.90;999.90;;;;;;;16.17;76.05;100421.75;6184199;23;20012;-96
2023/10/07 03:52:08;;;;;;;1999.90;999.90;;;;;;;16.08;75.94;100410.53;6183418;23;20017;-96
2023/10/07 03:54:34;;;;;;;1999.90;999.90;;;;;;;16.19;76.20;100409.31;6209707;23;20301;-96
2023/10/07 03:57:00;;;;;;;1999.90;999.90;;;;;;;16.19;75.94;100408.53;6209598;23;20087;-96
2023/10/07 03:59:32;;;;;;;1999.90;999.90;;;;;;;16.10;76.50;100405.56;6209816;23;20005;-96
2023/10/07 04:01:58;;;;;;;1999.90;999.90;;;;;;;16.06;76.57;100401.75;6209064;23;20004;-96
2023/10/07 04:04:24;;;;;;;1705.38;777.50;;;;;;;16.33;75.88;100400.44;6209318;23;20032;-96
2023/10/07 04:06:50;;;;;;;1999.90;999.90;;;;;;;16.29;75.78;100399.38;6209424;23;20005;-96
2023/10/07 04:09:16;;;;;;;1999.90;857.72;;;;;;;16.09;76.79;100398.41;6208526;23;20449;-96
2023/10/07 04:11:48;;;;;;;1999.90;896.08;;;;;;;16.20;76.31;100399.97;6209127;23;20027;-96
2023/10/07 04:14:22;;;;;;;1999.90;550.28;;;;;;;16.08;76.92;100402.28;6209551;23;20012;-96
2023/10/07 04:16:52;;;;;;;1999.90;766.45;;;;;;;16.12;76.40;100408.00;6209609;23;20005;-96
2023/10/07 04:21:46;;;;;;;1999.90;647.95;;;;;;;16.13;76.74;100393.97;6209084;23;20016;-96
2023/10/07 04:24:12;;;;;;;1999.90;536.05;;;;;;;16.17;76.86;100408.00;6209333;23;20004;-96
2023/10/07 04:26:51;;;;;;;1999.90;584.92;;;;;;;16.26;76.72;100410.94;6210428;23;20032;-96
2023/10/07 04:29:17;;;;;;;1999.90;893.17;;;;;;;16.21;76.70;100409.88;6209368;23;20004;-95
2023/10/07 04:31:53;;;;;;;1999.90;999.90;;;;;;;16.06;77.58;100410.00;6210591;23;20007;-90
2023/10/07 04:34:20;;;;;;;1999.90;999.90;;;;;;;16.13;77.35;100412.44;6181852;23;20095;-90
2023/10/07 04:47:46;;;;;;;1999.90;999.90;;;;;;;16.30;76.78;100392.75;6208799;23;20465;-91
2023/10/07 04:52:50;;;;;;;1999.90;999.90;;;;;;;16.09;77.64;100393.72;6211303;23;20070;-90
2023/10/07 04:55:25;;;;;;;1999.90;999.90;;;;;;;16.22;77.25;100396.94;6182705;23;20078;-90
2023/10/07 05:03:03;;;;;;;1999.90;999.90;;;;;;;15.94;78.56;100385.56;6218020;23;20410;-90
2023/10/07 05:05:33;;;;;;;1999.90;999.90;;;;;;;16.32;77.35;100387.78;6209599;23;20407;-90
2023/10/07 05:08:17;;;;;;;1999.90;999.90;;;;;;;16.42;77.04;100389.59;6209113;23;20039;-90
2023/10/07 05:10:43;;;;;;;1999.90;999.90;;;;;;;16.03;78.52;100383.06;6208914;23;20008;-90
2023/10/07 05:13:10;;;;;;;1999.90;999.90;;;;;;;16.08;78.12;100377.53;6209244;23;20020;-90
2023/10/07 05:15:41;;;;;;;1999.90;999.90;;;;;;;16.24;78.08;100374.63;6209535;23;20062;-90
2023/10/07 05:18:14;;;;;;;1999.90;999.90;;;;;;;16.32;77.89;100379.53;6208663;23;20377;-90
2023/10/07 05:20:41;;;;;;;1999.90;999.90;;;;;;;16.37;77.24;100374.00;6209300;23;20012;-90
2023/10/07 05:23:07;;;;;;;1999.90;999.90;;;;;;;16.38;77.50;100374.78;6208460;23;20008;-90
2023/10/07 05:25:38;;;;;;;1999.90;999.90;;;;;;;16.41;77.54;100377.81;6181969;23;20014;-90
2023/10/07 05:28:10;;;;;;;1999.90;999.90;;;;;;;16.41;77.46;100382.47;6181898;23;20036;-90
2023/10/07 05:30:50;;;;;;;1999.90;999.90;;;;;;;16.39;77.31;100388.28;6208524;23;20012;-90
2023/10/07 05:33:16;;;;;;;1999.90;999.90;;;;;;;16.39;77.27;100384.69;6208063;23;20088;-90
2023/10/07 05:35:43;;;;;;;1999.90;999.90;;;;;;;16.38;77.45;100375.63;6208149;23;20202;-90
2023/10/07 05:38:09;;;;;;;1999.90;999.90;;;;;;;16.22;78.10;100395.00;6213594;23;20012;-91
2023/10/07 05:40:39;;;;;;;1999.90;999.90;;;;;;;16.27;78.02;100387.84;6216794;23;20031;-96
2023/10/07 10:08:55;;;;;;;1999.90;999.90;;;;;;;18.21;76.02;100417.47;6207542;22;20643;-90
2023/10/07 10:11:30;;;;;;;1999.90;999.90;;;;;;;18.42;75.93;100401.41;6210649;23;20008;-90
2023/10/07 10:14:16;;;;;;;1999.90;999.90;;;;;;;18.63;75.21;100400.25;6216156;23;20012;-90
2023/10/07 10:16:57;;;;;;;1999.90;999.90;;;;;;;18.77;75.19;100390.00;6213755;23;20028;-90
2023/10/07 10:19:47;;;;;;;1999.90;999.90;;;;;;;18.86;75.12;100397.59;6209554;23;20008;-90
2023/10/07 10:22:22;;;;;;;1999.90;999.90;;;;;;;18.26;85.80;100431.22;6211133;22;20040;-92
2023/10/07 10:24:47;;;;;;;1999.90;999.90;;;;;;;18.22;80.80;100413.63;6210010;23;20012;-92
2023/10/07 10:27:13;;;;;;;1999.90;999.90;;;;;;;18.41;78.23;100421.03;6209086;23;20414;-93
2023/10/07 10:29:52;;;;;;;1999.90;999.90;;;;;;;18.64;79.14;100422.00;6209247;23;20466;-93
2023/10/07 10:32:27;;;;;;;1999.90;999.90;;;;;;;18.67;76.81;100420.59;6181379;23;20012;-93
2023/10/07 10:34:54;;;;;;;1999.90;999.90;;;;;;;18.87;76.69;100411.13;6207517;23;20004;-92
2023/10/07 10:37:23;;;;;;;1999.90;999.90;;;;;;;18.99;75.85;100407.00;6207832;23;20319;-92
2023/10/07 10:39:49;;;;;;;1999.90;999.90;;;;;;;19.05;75.26;100410.50;6207986;23;20019;-93
2023/10/07 10:42:14;;;;;;;1999.90;999.90;;;;;;;19.16;74.25;100405.63;6207742;23;20008;-93
2023/10/07 10:44:42;;;;;;;1999.90;999.90;;;;;;;19.31;73.50;100410.00;6207414;23;20711;-91
2023/10/07 10:47:07;;;;;;;1999.90;997.78;;;;;;;19.15;73.37;100401.19;6207748;23;20087;-91
2023/10/07 10:49:35;;;;;;;1999.90;999.90;;;;;;;19.30;73.45;100386.25;6207939;23;20036;-92
2023/10/07 10:52:02;;;;;;;1999.90;999.90;;;;;;;19.47;76.41;100383.66;6181386;23;20004;-93
2023/10/07 10:54:28;;;;;;;1999.90;999.90;;;;;;;19.35;73.71;100369.56;6209038;23;20009;-92
2023/10/07 10:56:58;;;;;;;1999.90;999.90;;;;;;;19.62;74.67;100390.00;6208532;23;20027;-92
2023/10/07 10:59:43;;;;;;;1999.90;999.90;;;;;;;19.64;73.10;100382.19;6209332;23;20431;-92
2023/10/07 11:02:22;;;;;;;1999.90;999.90;;;;;;;19.68;73.39;100385.16;6208708;23;20067;-92
2023/10/07 11:04:56;;;;;;;1999.90;999.90;;;;;;;19.90;74.19;100384.38;6209423;23;20028;-92
2023/10/07 11:07:22;;;;;;;1999.90;999.90;;;;;;;19.87;73.12;100384.97;6182293;23;20016;-91
2023/10/07 11:09:51;;;;;;;1999.90;999.90;;;;;;;20.02;72.93;100386.56;6208645;23;20079;-91
2023/10/07 11:12:17;;;;;;;1999.90;999.90;;;;;;;20.08;73.42;100390.06;6209237;23;20008;-92
2023/10/07 11:14:47;;;;;;;1999.90;760.03;;;;;;;20.16;71.57;100375.47;6208648;23;20005;-92
2023/10/07 11:17:15;;;;;;;1999.90;581.58;;;;;;;20.20;71.66;100377.63;6209100;23;20005;-92
2023/10/07 11:19:48;;;;;;;1999.90;999.90;;;;;;;20.16;70.36;100380.16;6208278;23;20011;-91
2023/10/07 11:22:18;;;;;;;1999.90;581.35;;;;;;;20.21;71.33;100370.94;6208922;23;20005;-91
2023/10/07 11:24:46;;;;;;;1999.90;999.90;;;;;;;20.28;71.49;100376.81;6183098;23;20611;-92
2023/10/07 11:27:12;;;;;;;1949.18;825.72;;;;;;;20.29;70.25;100372.94;6208808;23;20550;-92
2023/10/07 11:29:38;;;;;;;1999.90;999.90;;;;;;;20.36;69.80;100373.28;6208765;23;20004;-92
2023/10/07 11:32:08;;;;;;;1999.90;999.90;;;;;;;20.40;70.96;100366.00;6208947;23;20008;-92
2023/10/07 11:34:43;;;;;;;1999.90;999.90;;;;;;;20.23;68.93;100369.50;6209279;23;20008;-91
2023/10/07 11:37:14;;;;;;;1999.90;999.90;;;;;;;20.41;70.24;100366.81;6209576;23;20017;-92
2023/10/07 11:39:47;;;;;;;1999.90;999.90;;;;;;;20.54;70.92;100376.19;6209263;23;20044;-91
2023/10/07 11:42:16;;;;;;;1999.90;999.90;;;;;;;20.41;68.56;100377.88;6213857;23;20000;-96
2023/10/07 11:44:47;;;;;;;1999.90;999.90;;;;;;;20.48;68.67;100363.59;6220657;23;20493;-96
2023/10/07 11:47:15;;;;;;;1999.90;999.90;;;;;;;20.52;68.26;100362.63;6218568;23;20040;-96
2023/10/07 11:49:41;;;;;;;1999.90;999.90;;;;;;;20.64;67.85;100367.56;6220012;23;20020;-96
2023/10/07 11:52:07;;;;;;;1999.90;999.90;;;;;;;20.60;67.79;100361.06;6209419;23;20001;-96
2023/10/07 11:54:34;;;;;;;1356.38;418.13;;;;;;;20.38;67.19;100357.19;6210562;23;20485;-96
2023/10/07 11:57:01;;;;;;;1780.13;801.65;;;;;;;20.46;67.44;100360.34;6210691;23;20000;-96
2023/10/07 11:59:26;;;;;;;1989.22;835.13;;;;;;;20.45;68.64;100355.91;6211157;23;20005;-96
2023/10/07 12:01:54;;;;;;;1339.07;256.45;;;;;;;20.47;67.26;100364.72;6184705;23;20004;-96
2023/10/07 12:04:21;;;;;;;1999.90;599.33;;;;;;;20.51;67.22;100351.88;6185473;23;20012;-96
2023/10/07 12:06:47;;;;;;;1999.90;805.25;;;;;;;20.50;67.35;100350.25;6211778;23;20054;-96
2023/10/07 12:09:14;;;;;;;1999.90;953.25;;;;;;;20.51;67.08;100349.94;6181339;23;20435;-96
2023/10/07 12:11:40;;;;;;;1999.90;998.28;;;;;;;20.50;66.38;100348.28;6181773;23;20012;-96
2023/10/07 12:14:05;;;;;;;1999.90;671.22;;;;;;;20.45;66.77;100353.16;6183537;23;20454;-96
2023/10/07 12:16:33;;;;;;;1999.90;828.65;;;;;;;20.51;66.18;100355.47;6182219;23;20438;-96
2023/10/07 12:18:58;;;;;;;1880.32;810.65;;;;;;;20.64;66.06;100350.16;6181492;23;20435;-96
2023/10/07 12:21:23;;;;;;;1999.90;693.58;;;;;;;20.82;66.57;100351.03;6182187;23;20001;-96
2023/10/07 12:23:49;;;;;;;1999.90;732.78;;;;;;;20.79;65.88;100334.25;6186491;23;20013;-96
2023/10/07 12:26:16;;;;;;;1999.90;833.88;;;;;;;20.80;65.46;100353.31;6185232;23;20012;-96
2023/10/07 12:28:42;;;;;;;1999.90;641.13;;;;;;;20.97;66.35;100362.84;6182584;23;20025;-96
2023/10/07 12:31:12;;;;;;;1999.90;805.00;;;;;;;20.87;65.44;100359.19;6180778;23;20024;-96
2023/10/07 12:33:39;;;;;;;1999.90;999.90;;;;;;;20.89;65.36;100356.09;6182795;23;20056;-96
2023/10/07 12:36:14;;;;;;;1999.90;999.90;;;;;;;21.11;65.30;100349.66;6182415;23;20009;-96
2023/10/07 12:38:41;;;;;;;1999.90;640.78;;;;;;;21.16;65.97;100353.44;6183163;23;20013;-96
2023/10/07 12:41:07;;;;;;;1999.90;999.90;;;;;;;21.08;64.59;100353.09;6156663;23;20063;-96
2023/10/07 12:43:37;;;;;;;1999.90;999.90;;;;;;;21.11;64.44;100352.44;6182524;23;20044;-96
2023/10/07 12:46:09;;;;;;;1999.90;999.90;;;;;;;21.02;64.57;100359.94;6182898;23;20063;-96
2023/10/07 12:48:40;;;;;;;1999.90;999.90;;;;;;;21.03;64.31;100356.00;6181338;23;20013;-96
2023/10/07 12:51:06;;;;;;;1999.90;999.90;;;;;;;21.14;64.29;100359.31;6182902;23;20087;-96
2023/10/07 12:53:34;;;;;;;1999.90;999.90;;;;;;;21.25;63.71;100362.59;6155605;23;20009;-96
2023/10/07 12:56:13;;;;;;;1993.00;999.90;;;;;;;21.17;63.59;100366.16;6186176;23;20246;-96
2023/10/07 12:58:39;;;;;;;1193.07;999.90;;;;;;;21.08;63.16;100364.19;6180730;23;20024;-96
2023/10/07 13:01:11;;;;;;;825.35;731.38;;;;;;;21.05;62.49;100364.03;6180497;23;20067;-96
2023/10/07 13:03:39;;;;;;;938.40;866.42;;;;;;;21.15;62.74;100358.19;6180615;23;20013;-96
2023/10/07 13:06:08;;;;;;;878.22;814.25;;;;;;;21.27;63.14;100367.81;6181869;23;20009;-96
2023/10/07 13:08:33;;;;;;;870.35;805.50;;;;;;;21.27;63.58;100365.88;6177425;23;20012;-96
2023/10/07 13:11:00;;;;;;;746.80;684.97;;;;;;;21.36;62.81;100373.38;6214820;23;20000;-96
2023/10/07 13:13:25;;;;;;;340.13;313.73;;;;;;;21.19;61.84;100359.16;6213237;23;20008;-96
2023/10/07 13:15:51;;;;;;;17.80;16.42;;;;;;;21.29;61.75;100371.91;6213945;23;20004;-96
2023/10/07 13:18:17;;;;;;;8.60;4.43;;;;;;;21.36;61.18;100374.19;6213538;23;20285;-96
2023/10/07 13:20:44;;;;;;;16.73;10.00;;;;;;;21.44;61.76;100375.31;6213969;23;20475;-96
2023/10/07 13:23:11;;;;;;;13.25;5.93;;;;;;;21.52;61.82;100368.97;6186576;23;20013;-96
2023/10/07 13:25:37;;;;;;;8.27;4.60;;;;;;;21.52;61.67;100377.28;6185955;23;20028;-96
2023/10/07 13:28:02;;;;;;;8.45;2.95;;;;;;;21.40;60.87;100368.81;6186055;23;20343;-96
2023/10/07 13:30:30;;;;;;;7.30;3.33;;;;;;;21.40;61.22;100366.06;6213523;23;20437;-96
2023/10/07 13:32:56;;;;;;;6.65;2.58;;;;;;;21.43;59.61;100359.84;6210701;23;20005;-96
2023/10/07 13:35:23;;;;;;;7.75;2.78;;;;;;;21.44;58.91;100364.22;6212460;23;20323;-96
2023/10/07 13:37:51;;;;;;;7.88;3.08;;;;;;;21.43;58.52;100366.22;6213051;23;20020;-96
2023/10/07 13:40:17;;;;;;;9.88;3.28;;;;;;;21.42;58.25;100360.97;6212536;23;20347;-96
2023/10/07 13:42:47;;;;;;;9.50;3.40;;;;;;;21.45;58.79;100361.16;6213460;23;20149;-96
2023/10/07 13:45:21;;;;;;;8.95;3.38;;;;;;;21.40;58.80;100357.72;6214223;23;20035;-96
2023/10/07 13:47:47;;;;;;;9.55;3.20;;;;;;;21.33;58.78;100361.81;6214476;23;20005;-96
2023/10/07 13:50:14;;;;;;;7.55;3.13;;;;;;;21.34;59.16;100352.31;6212844;23;20019;-96
2023/10/07 13:53:40;;;;;;;9.13;2.78;;;;;;;21.43;59.23;100349.56;6213399;23;20009;-96
2023/10/07 13:55:33;;;;;;;8.23;3.38;;;;;;;21.49;59.36;100344.69;6195108;23;20430;-96
2023/10/07 13:58:04;;;;;;;7.53;2.90;;;;;;;21.51;59.61;100336.03;6184619;23;20092;-96
2023/10/07 14:03:20;;;;;;;6.82;2.75;;;;;;;21.50;59.27;100324.13;6221054;23;20015;-96
2023/10/07 14:05:49;;;;;;;8.30;3.38;;;;;;;21.48;58.80;100318.06;6210830;23;20008;-95
2023/10/07 14:08:24;;;;;;;12.52;3.22;;;;;;;21.40;58.39;100311.38;6211286;23;20335;-96
2023/10/07 14:10:51;;;;;;;10.30;3.58;;;;;;;21.45;57.91;100310.41;6210882;23;20043;-96
2023/10/07 14:13:23;;;;;;;7.95;3.33;;;;;;;21.46;58.26;100306.50;6210411;23;20355;-96
2023/10/07 14:15:51;;;;;;;8.80;3.90;;;;;;;21.46;58.47;100300.94;6210846;23;20012;-96
2023/10/07 14:18:20;;;;;;;7.55;3.25;;;;;;;21.53;58.50;100304.06;6210927;23;20004;-96
2023/10/07 14:20:59;;;;;;;8.13;2.63;;;;;;;21.57;58.45;100298.66;6211055;23;20430;-96
2023/10/07 14:23:27;;;;;;;14.15;3.40;;;;;;;21.64;58.49;100307.31;6210710;23;20015;-96
2023/10/07 14:25:54;;;;;;;9.45;2.75;;;;;;;21.43;59.18;100296.06;6212304;23;20016;-96
2023/10/07 14:28:21;;;;;;;8.23;3.65;;;;;;;21.55;59.15;100299.00;6189725;23;20020;-96
2023/10/07 14:30:50;;;;;;;15.10;3.67;;;;;;;21.38;58.52;100290.69;6216100;23;20009;-96
2023/10/07 14:33:16;;;;;;;9.95;3.42;;;;;;;21.42;58.55;100289.69;6212011;23;20119;-96
2023/10/07 14:35:47;;;;;;;7.68;3.15;;;;;;;21.46;59.25;100296.22;6211655;23;20008;-96
2023/10/07 14:38:13;;;;;;;6.60;2.50;;;;;;;21.51;59.41;100289.69;6210785;23;20015;-96
2023/10/07 14:40:41;;;;;;;9.00;3.15;;;;;;;21.42;58.99;100291.66;6209594;23;20101;-96
2023/10/07 14:43:13;;;;;;;8.43;3.55;;;;;;;21.50;59.67;100292.81;6209973;23;20005;-96
2023/10/07 14:45:46;;;;;;;15.00;4.20;;;;;;;21.42;58.94;100305.50;6183443;23;20058;-95
2023/10/07 14:48:11;;;;;;;8.02;3.53;;;;;;;21.30;59.27;100309.75;6210404;23;20079;-96
2023/10/07 14:50:38;;;;;;;7.05;3.13;;;;;;;21.22;59.30;100318.88;6210487;23;20004;-96
2023/10/07 14:53:04;;;;;;;6.63;2.72;;;;;;;21.22;58.99;100314.16;6211433;23;20011;-96
2023/10/07 14:55:33;;;;;;;6.68;3.08;;;;;;;21.24;59.77;100305.50;6184378;23;20251;-96
2023/10/07 14:58:03;;;;;;;6.45;3.10;;;;;;;21.13;60.18;100304.19;6210403;23;20013;-96
2023/10/07 15:00:32;;;;;;;6.85;2.95;;;;;;;21.04;60.32;100302.22;6210421;23;20067;-96
2023/10/07 15:03:01;;;;;;;6.78;3.63;;;;;;;21.03;60.63;100311.66;6210219;23;20008;-96
2023/10/07 15:05:29;;;;;;;8.50;2.90;;;;;;;21.00;60.19;100301.25;6185951;23;20005;-96
2023/10/07 15:07:55;;;;;;;10.95;3.65;;;;;;;20.87;60.33;100314.03;6211954;23;20410;-96
2023/10/07 15:10:21;;;;;;;8.70;3.13;;;;;;;20.84;60.78;100293.34;6211069;23;20005;-96
